createdAt,value
2018-04-13T00:01:17.828Z,72.00
2018-04-13T00:03:52.049Z,71.90
2018-04-13T00:06:20.447Z,71.40
2018-04-13T00:08:53.850Z,71.30
2018-04-13T00:11:21.440Z,70.80
2018-04-13T00:13:49.800Z,71.70
2018-04-13T00:16:23.341Z,71.10
2018-04-13T00:18:56.588Z,71.70
2018-04-13T00:21:34.100Z,72.20
2018-04-13T00:24:07.373Z,71.70
2018-04-13T00:26:34.978Z,70.90
2018-04-13T00:29:03.315Z,72.60
2018-04-13T00:31:42.683Z,72.50
2018-04-13T00:34:17.695Z,72.90
2018-04-13T00:36:45.254Z,72.80
2018-04-13T00:39:12.867Z,72.40
2018-04-13T00:41:41.247Z,72.70
2018-04-13T00:44:14.483Z,72.70
2018-04-13T00:46:42.089Z,72.40
2018-04-13T00:49:10.451Z,72.40
2018-04-13T00:51:38.073Z,72.30
2018-04-13T00:54:05.669Z,72.40
2018-04-13T00:56:39.063Z,72.40
2018-04-13T00:59:06.671Z,72.60
2018-04-13T01:01:34.253Z,72.50
2018-04-13T01:04:01.842Z,72.90
2018-04-13T01:06:30.214Z,73.30
2018-04-13T01:08:57.841Z,73.30
2018-04-13T01:11:25.448Z,73.20
2018-04-13T01:13:53.107Z,72.90
2018-04-13T01:16:20.703Z,72.90
2018-04-13T01:18:48.333Z,73.70
2018-04-13T01:21:21.795Z,74.20
2018-04-13T01:23:49.395Z,74.10
2018-04-13T01:26:22.855Z,74.20
2018-04-13T01:28:56.352Z,74.50
2018-04-13T01:31:23.960Z,74.20
2018-04-13T01:33:57.549Z,74.40
2018-04-13T01:36:30.689Z,74.90
2018-04-13T01:39:04.309Z,74.90
2018-04-13T01:41:43.573Z,74.90
2018-04-13T01:44:17.169Z,75.50
2018-04-13T01:46:46.805Z,75.60
2018-04-13T01:49:20.765Z,75.70
2018-04-13T01:51:48.347Z,75.50
2018-04-13T01:54:21.947Z,75.90
2018-04-13T01:57:01.462Z,76.30
2018-04-13T01:59:29.071Z,76.40
2018-04-13T02:01:57.428Z,76.60
2018-04-13T02:04:25.049Z,77.20
2018-04-13T02:06:52.805Z,76.80
2018-04-13T02:09:26.237Z,76.80
2018-04-13T02:11:59.463Z,76.70
2018-04-13T02:14:38.461Z,76.50
2018-04-13T02:17:06.093Z,76.40
2018-04-13T02:19:33.693Z,76.10
2018-04-13T02:22:01.321Z,76.10
2018-04-13T02:24:29.227Z,75.90
2018-04-13T02:26:56.827Z,75.60
2018-04-13T02:29:24.391Z,75.70
2018-04-13T02:31:51.999Z,75.60
2018-04-13T02:34:19.650Z,75.50
2018-04-13T02:36:47.264Z,75.00
2018-04-13T02:39:14.855Z,75.10
2018-04-13T02:41:42.487Z,76.00
2018-04-13T02:44:11.035Z,75.90
2018-04-13T02:46:38.649Z,75.10
2018-04-13T02:49:06.259Z,75.20
2018-04-13T02:51:33.859Z,74.80
2018-04-13T02:54:01.475Z,74.80
2018-04-13T02:56:29.117Z,74.50
2018-04-13T02:58:56.736Z,74.20
2018-04-13T03:01:24.288Z,73.90
2018-04-13T03:03:57.825Z,73.80
2018-04-13T03:06:25.467Z,73.70
2018-04-13T03:08:59.020Z,73.80
2018-04-13T03:11:27.425Z,73.40
2018-04-13T03:14:12.716Z,73.40
2018-04-13T03:16:40.315Z,73.40
2018-04-13T03:19:07.892Z,73.10
2018-04-13T03:21:41.484Z,73.40
2018-04-13T03:24:14.955Z,73.40
2018-04-13T03:26:42.578Z,73.00
2018-04-13T03:29:16.720Z,73.50
2018-04-13T03:31:44.303Z,73.40
2018-04-13T03:34:12.060Z,73.80
2018-04-13T03:36:39.674Z,74.10
2018-04-13T03:39:13.901Z,74.20
2018-04-13T03:41:42.305Z,74.20
2018-04-13T03:44:21.646Z,74.10
2018-04-13T03:46:49.238Z,74.80
2018-04-13T03:49:22.612Z,74.90
2018-04-13T03:51:50.222Z,75.20
2018-04-13T03:54:24.613Z,75.30
2018-04-13T03:56:57.934Z,75.30
2018-04-13T03:59:26.267Z,75.30
2018-04-13T04:01:53.861Z,75.30
2018-04-13T04:04:27.273Z,74.70
2018-04-13T04:06:55.678Z,76.70
2018-04-13T04:09:23.292Z,76.60
2018-04-13T04:11:56.857Z,76.70
2018-04-13T04:14:30.433Z,75.80
2018-04-13T04:17:09.857Z,75.00
2018-04-13T04:19:50.036Z,75.50
2018-04-13T04:22:29.467Z,75.50
2018-04-13T04:25:14.695Z,75.90
2018-04-13T04:27:47.927Z,77.30
2018-04-13T04:30:15.499Z,77.40
2018-04-13T04:32:49.103Z,77.40
2018-04-13T04:35:22.557Z,77.10
2018-04-13T04:37:55.951Z,76.60
2018-04-13T04:40:30.189Z,77.30
2018-04-13T04:43:03.473Z,77.40
2018-04-13T04:45:31.857Z,76.70
2018-04-13T04:48:00.279Z,77.50
2018-04-13T04:50:27.911Z,77.50
2018-04-13T04:53:07.170Z,76.90
2018-04-13T04:55:40.624Z,77.10
2018-04-13T04:58:14.741Z,77.30
2018-04-13T05:00:43.097Z,77.20
2018-04-13T05:06:08.105Z,76.50
2018-04-13T05:08:35.679Z,76.70
2018-04-13T05:11:03.279Z,76.10
2018-04-13T05:13:30.825Z,75.60
2018-04-13T05:16:05.945Z,74.80
2018-04-13T05:18:39.521Z,74.80
2018-04-13T05:21:08.187Z,75.40
2018-04-13T05:23:35.834Z,73.90
2018-04-13T05:26:15.070Z,73.90
2018-04-13T05:28:42.846Z,74.00
2018-04-13T05:31:10.505Z,73.00
2018-04-13T05:33:38.140Z,72.30
2018-04-13T05:36:06.488Z,72.20
2018-04-13T05:38:34.913Z,72.50
2018-04-13T05:41:08.398Z,72.40
2018-04-13T05:43:36.016Z,71.80
2018-04-13T05:46:03.644Z,71.40
2018-04-13T05:48:38.025Z,71.60
2018-04-13T05:51:05.621Z,71.40
2018-04-13T05:53:39.090Z,71.80
2018-04-13T05:56:13.426Z,72.30
2018-04-13T05:58:42.990Z,72.70
2018-04-13T06:01:16.282Z,73.60
2018-04-13T06:03:43.870Z,73.10
2018-04-13T06:06:12.244Z,72.40
2018-04-13T06:08:40.765Z,72.20
2018-04-13T06:11:08.358Z,72.20
2018-04-13T06:13:35.970Z,71.60
2018-04-13T06:16:10.366Z,71.20
2018-04-13T06:18:38.773Z,70.70
2018-04-13T06:21:16.713Z,70.70
2018-04-13T06:23:44.337Z,70.20
2018-04-13T06:26:17.979Z,70.40
2018-04-13T06:28:51.423Z,69.90
2018-04-13T06:31:19.049Z,70.80
2018-04-13T06:33:46.693Z,70.00
2018-04-13T06:36:14.452Z,70.00
2018-04-13T06:38:42.078Z,70.80
2018-04-13T06:41:15.676Z,71.40
2018-04-13T06:43:43.274Z,72.30
2018-04-13T06:46:16.458Z,72.40
2018-04-13T06:48:44.105Z,73.30
2018-04-13T06:51:11.706Z,73.50
2018-04-13T06:53:39.277Z,72.60
2018-04-13T06:56:07.630Z,71.60
2018-04-13T06:58:41.124Z,70.80
2018-04-13T07:01:14.581Z,71.40
2018-04-13T07:03:42.161Z,71.30
2018-04-13T07:06:10.138Z,71.00
2018-04-13T07:08:37.732Z,71.30
2018-04-13T07:11:05.354Z,70.70
2018-04-13T07:13:32.968Z,70.60
2018-04-13T07:16:07.008Z,68.10
2018-04-13T07:18:34.562Z,68.00
2018-04-13T07:21:07.847Z,66.90
2018-04-13T07:23:42.192Z,68.40
2018-04-13T07:26:10.045Z,68.40
2018-04-13T07:28:43.720Z,68.40
2018-04-13T07:31:13.007Z,68.30
2018-04-13T07:33:41.024Z,68.30
2018-04-13T07:36:14.309Z,68.20
2018-04-13T07:38:42.098Z,69.30
2018-04-13T07:41:09.616Z,69.70
2018-04-13T07:43:43.974Z,66.60
2018-04-13T07:46:11.619Z,66.60
2018-04-13T07:48:39.306Z,68.00
2018-04-13T07:51:06.908Z,69.00
2018-04-13T07:53:34.609Z,66.60
2018-04-13T07:56:02.183Z,65.60
2018-04-13T07:58:29.788Z,67.30
2018-04-13T08:01:03.140Z,68.10
2018-04-13T08:03:42.395Z,69.40
2018-04-13T08:06:15.703Z,71.50
2018-04-13T08:08:43.314Z,71.40
2018-04-13T08:11:11.317Z,70.70
2018-04-13T08:13:38.617Z,71.70
2018-04-13T08:16:18.745Z,73.10
2018-04-13T08:18:46.621Z,73.10
2018-04-13T08:21:14.650Z,73.50
2018-04-13T08:23:42.320Z,73.20
2018-04-13T08:26:09.889Z,74.20
2018-04-13T08:28:43.339Z,74.10
2018-04-13T08:31:11.737Z,74.40
2018-04-13T08:33:39.406Z,74.30
2018-04-13T08:36:07.005Z,74.60
2018-04-13T08:38:34.597Z,74.40
2018-04-13T08:41:03.115Z,76.00
2018-04-13T08:43:37.169Z,76.10
2018-04-13T08:46:04.801Z,76.10
2018-04-13T08:48:32.451Z,76.20
2018-04-13T08:51:00.875Z,75.30
2018-04-13T08:53:28.448Z,75.40
2018-04-13T08:56:02.815Z,78.20
2018-04-13T08:58:30.431Z,77.30
2018-04-13T09:01:04.871Z,76.60
2018-04-13T09:03:38.301Z,76.50
2018-04-13T09:06:06.734Z,75.80
2018-04-13T09:08:41.580Z,75.50
2018-04-13T09:11:09.188Z,75.50
2018-04-13T09:13:36.790Z,76.50
2018-04-13T09:16:05.197Z,76.60
2018-04-13T09:18:32.900Z,76.60
2018-04-13T09:21:00.483Z,75.70
2018-04-13T09:23:28.912Z,76.20
2018-04-13T09:25:56.695Z,76.20
2018-04-13T09:28:24.338Z,75.90
2018-04-13T09:30:52.102Z,75.30
2018-04-13T09:33:25.511Z,74.40
2018-04-13T09:35:58.915Z,71.50
2018-04-13T09:38:26.539Z,73.30
2018-04-13T09:40:54.110Z,71.60
2018-04-13T09:43:21.822Z,68.70
2018-04-13T09:45:50.226Z,68.90
2018-04-13T09:48:17.855Z,68.90
2018-04-13T09:50:51.171Z,68.80
2018-04-13T09:53:19.522Z,66.80
2018-04-13T09:55:48.632Z,65.10
2018-04-13T09:58:16.285Z,65.10
2018-04-13T10:00:44.060Z,66.30
2018-04-13T10:03:18.036Z,66.10
2018-04-13T10:05:45.933Z,66.10
2018-04-13T10:08:20.274Z,64.30
2018-04-13T10:10:48.650Z,66.10
2018-04-13T10:13:16.348Z,66.00
2018-04-13T10:15:43.994Z,62.50
2018-04-13T10:18:18.122Z,63.20
2018-04-13T10:20:45.724Z,63.20
2018-04-13T10:23:13.326Z,62.20
2018-04-13T10:25:40.945Z,57.80
2018-04-13T10:28:08.696Z,58.90
2018-04-13T10:30:41.896Z,56.60
2018-04-13T10:33:09.502Z,56.50
2018-04-13T10:35:37.082Z,57.40
2018-04-13T10:38:04.684Z,56.40
2018-04-13T10:40:38.238Z,60.20
2018-04-13T10:43:05.866Z,57.80
2018-04-13T10:45:33.570Z,58.10
2018-04-13T10:48:01.270Z,58.30
2018-04-13T10:50:34.646Z,58.60
2018-04-13T10:53:02.363Z,55.30
2018-04-13T10:55:35.912Z,55.90
2018-04-13T10:58:03.585Z,56.30
2018-04-13T11:00:31.928Z,59.00
2018-04-13T11:02:59.547Z,59.00
2018-04-13T11:05:28.172Z,59.20
2018-04-13T11:07:55.848Z,59.30
2018-04-13T11:10:23.618Z,59.10
2018-04-13T11:13:03.022Z,59.40
2018-04-13T11:15:30.802Z,60.40
2018-04-13T11:17:58.551Z,61.40
2018-04-13T11:20:32.039Z,58.80
2018-04-13T11:22:59.912Z,57.70
2018-04-13T11:25:27.595Z,59.60
2018-04-13T11:28:06.951Z,59.30
2018-04-13T11:30:34.666Z,59.30
2018-04-13T11:33:02.289Z,61.50
2018-04-13T11:35:36.107Z,61.40
2018-04-13T11:38:06.130Z,59.90
2018-04-13T11:40:40.579Z,60.30
2018-04-13T11:43:08.161Z,60.20
2018-04-13T11:45:36.530Z,59.30
2018-04-13T11:48:04.192Z,59.90
2018-04-13T11:50:43.589Z,61.10
2018-04-13T11:53:11.227Z,59.60
2018-04-13T11:55:44.581Z,59.90
2018-04-13T11:58:18.015Z,59.40
2018-04-13T12:00:51.469Z,58.60
2018-04-13T12:03:19.091Z,59.30
2018-04-13T12:05:53.181Z,59.00
2018-04-13T12:08:21.643Z,58.80
2018-04-13T12:10:49.239Z,58.70
2018-04-13T12:13:16.860Z,58.70
2018-04-13T12:15:44.514Z,59.00
2018-04-13T12:18:12.123Z,57.00
2018-04-13T12:20:39.692Z,57.00
2018-04-13T12:23:08.086Z,57.50
2018-04-13T12:25:35.697Z,57.40
2018-04-13T12:28:03.344Z,59.00
2018-04-13T12:30:31.004Z,59.30
2018-04-13T12:32:58.586Z,59.40
2018-04-13T12:35:26.208Z,59.00
2018-04-13T12:37:53.783Z,59.60
2018-04-13T12:40:21.382Z,60.30
2018-04-13T12:42:48.936Z,62.50
2018-04-13T12:45:16.484Z,62.30
2018-04-13T12:47:44.103Z,62.90
2018-04-13T12:50:11.754Z,63.40
2018-04-13T12:52:40.182Z,65.40
2018-04-13T12:55:07.977Z,65.30
2018-04-13T12:57:35.444Z,66.00
2018-04-13T13:00:03.813Z,67.60
2018-04-13T13:02:31.417Z,67.40
2018-04-13T13:04:59.027Z,68.40
2018-04-13T13:07:26.887Z,69.10
2018-04-13T13:09:55.312Z,70.40
2018-04-13T13:12:22.897Z,70.40
2018-04-13T13:14:50.503Z,71.80
2018-04-13T13:17:18.149Z,72.10
2018-04-13T13:19:45.768Z,72.70
2018-04-13T13:22:16.236Z,73.30
2018-04-13T13:24:43.839Z,72.80
2018-04-13T13:27:11.445Z,72.50
2018-04-13T13:29:39.201Z,72.80
2018-04-13T13:32:06.806Z,73.00
2018-04-13T13:34:34.454Z,72.50
2018-04-13T13:37:02.074Z,73.50
2018-04-13T13:39:29.711Z,72.90
2018-04-13T13:41:57.322Z,73.00
2018-04-13T13:44:24.919Z,73.30
2018-04-13T13:46:53.322Z,73.90
2018-04-13T13:49:20.906Z,73.90
2018-04-13T13:51:48.475Z,74.70
2018-04-13T13:54:16.107Z,74.70
2018-04-13T13:56:43.877Z,74.80
2018-04-13T13:59:11.481Z,74.50
2018-04-13T14:01:39.083Z,73.90
2018-04-13T14:04:06.742Z,73.20
2018-04-13T14:06:34.306Z,71.90
2018-04-13T14:09:01.949Z,71.80
2018-04-13T14:11:30.324Z,70.90
2018-04-13T14:13:58.692Z,69.20
2018-04-13T14:16:26.325Z,69.10
2018-04-13T14:18:53.929Z,68.60
2018-04-13T14:21:22.322Z,68.50
2018-04-13T14:23:49.941Z,68.50
2018-04-13T14:26:19.131Z,68.10
2018-04-13T14:28:46.828Z,66.80
2018-04-13T14:31:14.483Z,67.30
2018-04-13T14:33:42.160Z,66.50
2018-04-13T14:36:09.774Z,66.30
2018-04-13T14:38:37.400Z,66.90
2018-04-13T14:41:05.048Z,67.10
2018-04-13T14:43:32.613Z,67.80
2018-04-13T14:46:00.253Z,68.20
2018-04-13T14:48:27.844Z,68.90
2018-04-13T14:50:55.487Z,70.00
2018-04-13T14:53:23.092Z,70.60
2018-04-13T14:55:51.476Z,71.70
2018-04-13T14:58:19.904Z,71.60
2018-04-13T15:00:47.523Z,71.50
2018-04-13T15:03:15.891Z,73.60
2018-04-13T15:05:44.313Z,73.50
2018-04-13T15:08:11.986Z,73.50
2018-04-13T15:10:39.559Z,73.50
2018-04-13T15:13:07.196Z,74.10
2018-04-13T15:15:34.818Z,73.30
2018-04-13T15:18:03.275Z,70.90
2018-04-13T15:20:30.912Z,70.90
2018-04-13T15:22:58.513Z,69.90
2018-04-13T15:25:26.130Z,70.00
2018-04-13T15:27:53.736Z,70.40
2018-04-13T15:30:22.098Z,70.60
2018-04-13T15:32:49.800Z,70.50
2018-04-13T15:35:17.416Z,71.40
2018-04-13T15:37:45.059Z,72.40
2018-04-13T15:40:12.737Z,71.50
2018-04-13T15:42:40.314Z,70.70
2018-04-13T15:45:09.460Z,71.60
2018-04-13T15:47:37.058Z,71.60
2018-04-13T15:50:04.646Z,71.90
2018-04-13T15:52:33.073Z,71.80
2018-04-13T15:55:00.715Z,71.80
2018-04-13T15:57:28.346Z,72.50
2018-04-13T15:59:56.740Z,72.10
2018-04-13T16:02:25.098Z,71.80
2018-04-13T16:04:52.730Z,71.70
2018-04-13T16:07:20.373Z,71.80
2018-04-13T16:09:47.975Z,73.10
2018-04-13T16:12:15.622Z,73.60
2018-04-13T16:14:43.261Z,74.10
2018-04-13T16:17:10.914Z,74.40
2018-04-13T16:19:38.530Z,75.20
2018-04-13T16:22:06.899Z,74.70
2018-04-13T16:24:34.518Z,74.70
2018-04-13T16:27:02.154Z,74.10
2018-04-13T16:29:29.720Z,75.00
2018-04-13T16:31:57.308Z,75.50
2018-04-13T16:34:24.930Z,76.40
2018-04-13T16:36:52.491Z,77.20
2018-04-13T16:39:20.113Z,77.50
2018-04-13T16:41:47.717Z,77.40
2018-04-13T16:44:15.403Z,77.90
2018-04-13T16:46:43.093Z,78.20
2018-04-13T16:49:10.841Z,79.00
2018-04-13T16:51:38.619Z,78.60
2018-04-13T16:54:06.276Z,79.10
2018-04-13T16:56:33.855Z,78.80
2018-04-13T16:59:01.490Z,78.50
2018-04-13T17:01:29.936Z,78.80
2018-04-13T17:03:57.651Z,78.80
2018-04-13T17:06:25.277Z,78.80
2018-04-13T17:08:52.858Z,78.90
2018-04-13T17:11:20.485Z,79.50
2018-04-13T17:13:48.080Z,79.10
2018-04-13T17:16:15.703Z,79.20
2018-04-13T17:18:43.371Z,78.60
2018-04-13T17:21:11.061Z,78.10
2018-04-13T17:23:38.754Z,79.00
2018-04-13T17:26:06.341Z,79.60
2018-04-13T17:28:34.136Z,78.80
2018-04-13T17:31:01.726Z,77.80
2018-04-13T17:33:29.376Z,77.70
2018-04-13T17:36:01.200Z,78.20
2018-04-13T17:38:29.173Z,78.00
2018-04-13T17:40:56.804Z,77.00
2018-04-13T17:43:24.532Z,77.20
2018-04-13T17:45:52.097Z,77.50
2018-04-13T17:48:19.701Z,77.70
2018-04-13T17:50:47.328Z,78.90
2018-04-13T17:53:14.950Z,78.50
2018-04-13T17:55:43.346Z,78.50
2018-04-13T17:58:10.951Z,78.50
2018-04-13T18:00:38.563Z,78.10
2018-04-13T18:03:06.228Z,78.10
2018-04-13T18:05:33.856Z,79.10
2018-04-13T18:08:01.464Z,79.10
2018-04-13T18:10:29.033Z,78.90
2018-04-13T18:12:56.611Z,79.20
2018-04-13T18:15:24.220Z,79.10
2018-04-13T18:17:52.575Z,78.10
2018-04-13T18:20:27.819Z,78.00
2018-04-13T18:22:56.184Z,78.90
2018-04-13T18:25:23.813Z,78.90
2018-04-13T18:27:51.454Z,78.90
2018-04-13T18:30:19.068Z,78.70
2018-04-13T18:32:46.648Z,78.90
2018-04-13T18:35:14.298Z,78.80
2018-04-13T18:37:41.938Z,78.80
2018-04-13T18:40:09.614Z,78.20
2018-04-13T18:42:37.253Z,78.70
2018-04-13T18:45:04.848Z,78.50
2018-04-13T18:47:32.420Z,78.40
2018-04-13T18:50:00.785Z,78.20
2018-04-13T18:52:55.979Z,78.20
2018-04-13T18:55:25.135Z,77.10
2018-04-13T18:57:52.808Z,77.00
2018-04-13T19:00:20.472Z,76.90
2018-04-13T19:02:48.359Z,77.10
2018-04-13T19:05:16.002Z,77.10
2018-04-13T19:07:43.604Z,76.60
2018-04-13T19:10:11.425Z,76.70
2018-04-13T19:12:39.037Z,76.90
2018-04-13T19:15:06.661Z,77.10
2018-04-13T19:17:34.322Z,76.90
2018-04-13T19:20:09.464Z,76.70
2018-04-13T19:22:56.713Z,76.30
2018-04-13T19:25:24.382Z,76.70
2018-04-13T19:27:52.773Z,76.50
2018-04-13T19:30:20.383Z,76.50
2018-04-13T19:32:48.637Z,77.10
2018-04-13T19:35:16.629Z,76.90
2018-04-13T19:37:55.781Z,77.30
2018-04-13T19:40:23.451Z,77.40
2018-04-13T19:42:51.063Z,77.00
2018-04-13T19:45:20.977Z,77.30
2018-04-13T19:47:49.665Z,78.40
2018-04-13T19:50:17.277Z,78.40
2018-04-13T19:52:44.861Z,78.40
2018-04-13T19:55:24.255Z,77.70
2018-04-13T19:57:51.878Z,77.70
2018-04-13T20:00:19.505Z,77.30
2018-04-13T20:02:47.101Z,77.80
2018-04-13T20:05:14.726Z,77.90
2018-04-13T20:07:42.319Z,77.80
2018-04-13T20:10:11.505Z,78.30
2018-04-13T20:12:39.885Z,78.20
2018-04-13T20:15:08.245Z,79.40
2018-04-13T20:17:46.445Z,79.40
2018-04-13T20:20:14.021Z,79.40
2018-04-13T20:22:42.441Z,80.10
2018-04-13T20:25:10.044Z,80.10
2018-04-13T20:27:37.664Z,78.50
2018-04-13T20:30:05.423Z,78.80
2018-04-13T20:32:33.033Z,79.40
2018-04-13T20:35:00.714Z,79.50
2018-04-13T20:37:29.197Z,78.30
2018-04-13T20:39:57.594Z,79.50
2018-04-13T20:42:44.597Z,79.40
2018-04-13T20:45:12.974Z,80.00
2018-04-13T20:47:41.396Z,80.20
2018-04-13T20:50:08.986Z,80.20
2018-04-13T20:52:36.608Z,80.00
2018-04-13T20:55:04.378Z,80.00
2018-04-13T20:57:33.905Z,79.60
2018-04-13T21:00:01.551Z,80.40
2018-04-13T21:02:29.174Z,80.40
2018-04-13T21:04:56.813Z,80.30
2018-04-13T21:07:25.536Z,80.60
2018-04-13T21:09:53.667Z,81.40
2018-04-13T21:12:22.375Z,81.00
2018-04-13T21:14:50.747Z,81.20
2018-04-13T21:17:25.777Z,81.00
2018-04-13T21:19:53.403Z,81.00
2018-04-13T21:22:21.262Z,80.80
2018-04-13T21:24:48.889Z,81.00
2018-04-13T21:27:16.416Z,80.90
2018-04-13T21:29:44.032Z,80.90
2018-04-13T21:32:11.628Z,81.40
2018-04-13T21:34:39.256Z,80.50
2018-04-13T21:37:06.842Z,81.10
2018-04-13T21:39:34.500Z,80.70
2018-04-13T21:42:02.139Z,80.80
2018-04-13T21:44:29.737Z,80.60
2018-04-13T21:46:58.101Z,80.80
2018-04-13T21:49:25.751Z,80.70
2018-04-13T21:51:53.335Z,80.70
2018-04-13T21:54:20.908Z,80.70
2018-04-13T21:56:48.519Z,79.80
2018-04-13T21:59:16.144Z,79.30
2018-04-13T22:01:44.546Z,80.20
2018-04-13T22:04:12.121Z,80.20
2018-04-13T22:06:39.717Z,79.90
2018-04-13T22:09:11.444Z,79.70
2018-04-13T22:11:39.001Z,79.70
2018-04-13T22:14:18.510Z,79.80
2018-04-13T22:16:46.089Z,79.90
2018-04-13T22:19:13.639Z,79.80
2018-04-13T22:21:41.245Z,79.70
2018-04-13T22:24:08.857Z,81.00
2018-04-13T22:26:36.499Z,81.30
2018-04-13T22:29:26.690Z,81.80
2018-04-13T22:31:55.075Z,81.90
2018-04-13T22:34:23.448Z,81.90
2018-04-13T22:36:51.826Z,82.10
2018-04-13T22:39:20.207Z,82.30
2018-04-13T22:41:48.594Z,82.50
2018-04-13T22:44:16.149Z,82.40
2018-04-13T22:46:44.524Z,82.50
2018-04-13T22:49:12.124Z,82.50
2018-04-13T22:51:39.702Z,82.50
2018-04-13T22:54:07.326Z,82.30
2018-04-13T22:56:34.905Z,82.60
2018-04-13T22:59:02.484Z,82.20
2018-04-13T23:01:30.089Z,81.60
2018-04-13T23:03:58.495Z,81.10
2018-04-13T23:06:26.134Z,81.10
2018-04-13T23:08:54.500Z,81.40
2018-04-13T23:11:22.866Z,81.20
2018-04-13T23:13:50.466Z,81.10
2018-04-13T23:16:18.065Z,81.90
2018-04-13T23:18:47.932Z,81.20
2018-04-13T23:21:15.527Z,81.20
2018-04-13T23:23:43.133Z,81.20
2018-04-13T23:26:11.490Z,80.90
2018-04-13T23:28:39.096Z,81.60
2018-04-13T23:31:06.686Z,81.10
2018-04-13T23:33:34.264Z,81.20
2018-04-13T23:36:01.874Z,81.20
2018-04-13T23:38:29.440Z,81.20
2018-04-13T23:40:57.034Z,81.50
2018-04-13T23:43:24.654Z,81.70
2018-04-13T23:45:52.307Z,82.10
2018-04-13T23:48:19.875Z,82.00
2018-04-13T23:50:49.468Z,82.30
2018-04-13T23:53:17.828Z,82.40
2018-04-13T23:55:45.424Z,82.40
2018-04-13T23:58:13.025Z,82.30
